Time;durP1;ratioP1;P1;durP2;ratioP2;P2;SDS_P1;SDS_P2;PMS_P1;PMS_P2;Temp;Humidity;BMP_temperature;BMP_pressure;BME280_temperature;BME280_humidity;BME280_pressure;Samples;Min_cycle;Max_cycle;Signal;HPM_P1;HPM_P2
2023/01/20 00:01:24;;;;;;;5.57;1.40;;;-0.40;99.90;;;;;;5113661;28;20114;-85
2023/01/20 00:03:52;;;;;;;1.45;1.00;;;-0.40;99.90;;;;;;5113606;28;20514;-86
2023/01/20 00:06:20;;;;;;;4.70;1.40;;;0.00;99.90;;;;;;5113310;28;20040;-81
2023/01/20 00:08:51;;;;;;;2.28;1.02;;;-0.40;99.90;;;;;;5113365;28;20075;-85
2023/01/20 00:11:19;;;;;;;3.15;1.17;;;-0.30;99.90;;;;;;5113643;28;20039;-86
2023/01/20 00:13:46;;;;;;;2.83;1.10;;;-0.40;99.90;;;;;;5113800;28;20032;-85
2023/01/20 00:16:13;;;;;;;2.95;1.20;;;0.00;99.90;;;;;;5113652;28;20040;-87
2023/01/20 00:18:40;;;;;;;2.95;1.30;;;-0.30;99.90;;;;;;5113163;28;20043;-86
2023/01/20 00:21:09;;;;;;;2.38;1.10;;;-0.40;99.90;;;;;;5130382;28;20489;-85
2023/01/20 00:23:36;;;;;;;7.07;1.13;;;-0.50;99.90;;;;;;5112941;28;20404;-86
2023/01/20 00:26:08;;;;;;;2.78;1.20;;;-0.40;99.90;;;;;;5113266;28;20040;-86
2023/01/20 00:28:36;;;;;;;2.58;1.27;;;-0.50;99.90;;;;;;5113025;28;20492;-86
2023/01/20 00:31:12;;;;;;;1.50;0.90;;;-0.40;99.90;;;;;;5130184;28;20036;-86
2023/01/20 00:33:40;;;;;;;2.63;1.15;;;-0.50;99.90;;;;;;5112682;28;20074;-86
2023/01/20 00:36:07;;;;;;;3.40;1.20;;;-0.40;99.90;;;;;;5130416;28;20075;-86
2023/01/20 00:38:34;;;;;;;4.53;1.50;;;-0.50;99.90;;;;;;5112879;28;20504;-86
2023/01/20 00:41:01;;;;;;;5.00;1.55;;;-0.50;99.90;;;;;;5130065;28;20044;-86
2023/01/20 00:43:28;;;;;;;4.57;1.38;;;-0.50;99.90;;;;;;5112594;28;20173;-86
2023/01/20 00:45:54;;;;;;;2.13;1.17;;;-0.60;99.90;;;;;;5095995;28;20504;-86
2023/01/20 00:48:21;;;;;;;2.47;1.17;;;-0.50;99.90;;;;;;5112847;28;20043;-86
2023/01/20 00:50:48;;;;;;;4.05;1.77;;;-0.30;99.90;;;;;;5112589;28;20141;-86
2023/01/20 00:53:15;;;;;;;2.55;1.40;;;-0.70;99.90;;;;;;5112840;28;20385;-85
2023/01/20 00:55:42;;;;;;;3.40;1.65;;;-0.70;99.90;;;;;;5112639;28;20032;-85
2023/01/20 00:58:09;;;;;;;5.88;2.10;;;-0.70;99.90;;;;;;5095999;28;20488;-86
2023/01/20 01:00:35;;;;;;;4.32;1.55;;;-0.80;99.90;;;;;;5112571;28;20039;-85
2023/01/20 01:03:04;;;;;;;3.92;1.92;;;-0.80;99.90;;;;;;5112615;28;20043;-86
2023/01/20 01:05:31;;;;;;;3.95;1.63;;;-0.80;99.90;;;;;;5095569;28;20040;-85
2023/01/20 01:07:58;;;;;;;3.88;1.60;;;-0.80;99.90;;;;;;5112235;28;20051;-85
2023/01/20 01:10:25;;;;;;;3.08;1.70;;;-0.80;99.90;;;;;;5112412;28;20036;-85
2023/01/20 01:12:51;;;;;;;4.70;1.73;;;-0.80;99.90;;;;;;5095675;28;20043;-86
2023/01/20 01:15:18;;;;;;;5.72;2.10;;;-0.60;99.90;;;;;;5095705;28;20059;-86
2023/01/20 01:17:45;;;;;;;7.57;3.45;;;-0.80;99.90;;;;;;5129357;28;20048;-86
2023/01/20 01:20:13;;;;;;;6.07;3.13;;;0.10;99.90;;;;;;5112583;28;20047;-86
2023/01/20 01:22:39;;;;;;;6.32;2.85;;;0.20;99.90;;;;;;5129094;28;20094;-86
2023/01/20 01:25:06;;;;;;;10.07;3.45;;;-0.50;99.90;;;;;;5112003;28;20078;-87
2023/01/20 01:27:33;;;;;;;11.45;4.53;;;-0.60;99.90;;;;;;5111682;28;20051;-86
2023/01/20 01:30:00;;;;;;;7.40;3.42;;;-0.60;99.90;;;;;;5112174;28;20040;-86
2023/01/20 01:32:26;;;;;;;10.15;4.13;;;0.30;99.90;;;;;;5112343;28;20035;-85
2023/01/20 01:34:53;;;;;;;13.50;5.20;;;-0.50;99.90;;;;;;5094662;28;20039;-86
2023/01/20 01:37:20;;;;;;;12.38;5.38;;;-0.10;99.90;;;;;;5111890;28;20032;-86
2023/01/20 01:39:47;;;;;;;10.73;4.88;;;-0.50;99.90;;;;;;5095278;28;20040;-86
2023/01/20 01:42:17;;;;;;;9.13;4.00;;;-0.50;99.90;;;;;;5095263;28;20036;-86
2023/01/20 01:45:23;;;;;;;6.22;2.95;;;-0.40;99.90;;;;;;5111825;28;20479;-86
2023/01/20 01:48:05;;;;;;;10.13;3.42;;;-0.40;99.90;;;;;;5073768;28;20048;-85
2023/01/20 01:50:38;;;;;;;7.78;3.17;;;-0.40;99.90;;;;;;5074030;28;20140;-86
2023/01/20 01:53:07;;;;;;;7.82;3.28;;;-0.40;99.90;;;;;;5096852;28;20036;-84
2023/01/20 01:55:38;;;;;;;7.72;3.22;;;-0.10;99.90;;;;;;5111641;28;20032;-86
2023/01/20 01:58:07;;;;;;;7.15;3.45;;;0.50;99.90;;;;;;5128072;28;20036;-87
2023/01/20 02:00:34;;;;;;;6.53;2.90;;;0.30;99.90;;;;;;5111461;28;20067;-86
2023/01/20 02:03:01;;;;;;;7.50;2.70;;;0.30;99.90;;;;;;5110998;28;20074;-86
2023/01/20 02:05:29;;;;;;;5.40;2.92;;;-0.20;99.90;;;;;;5094624;28;20048;-86
2023/01/20 02:07:58;;;;;;;5.78;3.00;;;-0.20;99.90;;;;;;5127935;28;20131;-86
2023/01/20 02:10:25;;;;;;;6.20;2.90;;;-0.20;99.90;;;;;;5128101;28;20036;-86
2023/01/20 02:12:52;;;;;;;8.82;3.60;;;-0.20;99.90;;;;;;5110834;28;20058;-86
2023/01/20 02:15:25;;;;;;;6.55;3.17;;;-0.20;99.90;;;;;;5094738;28;20066;-87
2023/01/20 02:18:13;;;;;;;8.50;3.42;;;0.50;99.90;;;;;;5110910;28;20040;-85
2023/01/20 02:20:58;;;;;;;8.10;3.83;;;-0.90;99.90;;;;;;5127693;28;20404;-85
2023/01/20 02:23:40;;;;;;;8.07;3.95;;;-0.20;99.90;;;;;;5128039;28;20132;-86
2023/01/20 02:26:25;;;;;;;7.47;3.80;;;-0.20;99.90;;;;;;5127554;28;20131;-86
2023/01/20 02:29:20;;;;;;;8.82;3.33;;;-0.20;99.90;;;;;;5127929;28;20050;-86
2023/01/20 02:31:46;;;;;;;9.15;3.70;;;-0.20;99.90;;;;;;5127774;28;20056;-87
2023/01/20 02:34:22;;;;;;;7.72;3.63;;;-0.10;99.90;;;;;;5127785;28;20141;-85
2023/01/20 02:37:04;;;;;;;7.70;3.53;;;-0.20;99.90;;;;;;5127520;28;20039;-86
2023/01/20 02:40:14;;;;;;;7.75;3.92;;;-0.20;99.90;;;;;;5127665;28;20076;-86
2023/01/20 02:43:20;;;;;;;7.97;3.70;;;-0.20;99.90;;;;;;5110617;28;20522;-85
2023/01/20 02:46:18;;;;;;;9.00;4.00;;;-0.20;99.90;;;;;;5110450;28;20055;-86
2023/01/20 02:49:08;;;;;;;9.13;4.50;;;-0.20;99.90;;;;;;5144479;28;20061;-82
2023/01/20 02:51:43;;;;;;;8.13;3.67;;;-0.20;99.90;;;;;;5121523;28;20052;-85
2023/01/20 02:54:12;;;;;;;9.27;4.10;;;-0.20;99.90;;;;;;5127743;28;20048;-85
2023/01/20 02:56:39;;;;;;;11.52;5.00;;;-0.20;99.90;;;;;;5110768;28;20032;-86
2023/01/20 02:59:13;;;;;;;13.13;4.40;;;-0.30;99.90;;;;;;5127077;28;20035;-85
2023/01/20 03:01:46;;;;;;;10.55;4.75;;;-0.20;99.90;;;;;;5110518;28;20047;-87
2023/01/20 03:04:17;;;;;;;11.63;4.35;;;-0.20;99.90;;;;;;5127279;28;20096;-87
2023/01/20 03:06:49;;;;;;;9.30;4.13;;;0.50;99.90;;;;;;5110466;28;20048;-86
2023/01/20 03:09:23;;;;;;;10.63;4.65;;;-0.20;99.90;;;;;;5126473;28;20040;-87
2023/01/20 03:11:57;;;;;;;7.72;4.05;;;-0.10;99.90;;;;;;5110265;28;20392;-85
2023/01/20 03:14:24;;;;;;;10.20;4.63;;;-0.20;99.90;;;;;;5110436;28;20044;-85
2023/01/20 03:16:51;;;;;;;9.43;4.32;;;-0.10;99.90;;;;;;5110219;28;20378;-87
2023/01/20 03:19:18;;;;;;;12.88;5.18;;;-0.20;99.90;;;;;;5110522;28;20047;-87
2023/01/20 03:21:45;;;;;;;8.73;4.22;;;0.50;99.90;;;;;;5110350;28;20051;-86
2023/01/20 03:24:12;;;;;;;8.98;4.10;;;-0.10;99.90;;;;;;5126827;28;20048;-86
2023/01/20 03:26:39;;;;;;;10.70;4.28;;;-0.10;99.90;;;;;;5093541;28;20036;-86
2023/01/20 03:29:08;;;;;;;11.13;4.63;;;-0.10;99.90;;;;;;5109875;28;20450;-85
2023/01/20 03:31:36;;;;;;;10.35;4.28;;;-0.10;99.90;;;;;;5110210;28;20544;-86
2023/01/20 03:34:09;;;;;;;8.50;3.88;;;0.30;99.90;;;;;;5126893;28;20074;-87
2023/01/20 03:36:37;;;;;;;9.75;4.32;;;-0.10;99.90;;;;;;5110419;28;20032;-85
2023/01/20 03:39:04;;;;;;;9.90;4.50;;;-0.10;99.90;;;;;;5109833;28;20123;-86
2023/01/20 03:42:04;;;;;;;7.97;4.10;;;0.00;99.90;;;;;;5093806;28;20075;-87
2023/01/20 03:45:04;;;;;;;12.15;4.20;;;-0.10;99.90;;;;;;5109767;28;20044;-85
2023/01/20 03:47:39;;;;;;;7.90;4.22;;;0.00;99.90;;;;;;5126711;28;20046;-85
2023/01/20 03:50:14;;;;;;;9.02;4.20;;;0.00;99.90;;;;;;5126480;28;20142;-87
2023/01/20 03:52:41;;;;;;;9.60;4.50;;;-0.10;99.90;;;;;;5127236;28;20047;-86
2023/01/20 03:55:19;;;;;;;10.45;3.97;;;-0.10;99.90;;;;;;5126814;28;20040;-86
2023/01/20 03:58:02;;;;;;;9.88;4.72;;;0.00;99.90;;;;;;5110080;28;20082;-87
2023/01/20 04:00:32;;;;;;;10.50;4.45;;;0.00;99.90;;;;;;5110923;28;20149;-86
2023/01/20 04:03:06;;;;;;;7.85;4.03;;;0.00;99.90;;;;;;5109432;28;20039;-86
2023/01/20 04:05:33;;;;;;;10.32;4.28;;;0.60;99.90;;;;;;5109813;28;20621;-86
2023/01/20 04:08:05;;;;;;;9.27;4.20;;;-0.10;99.90;;;;;;5109485;28;20048;-86
2023/01/20 04:10:35;;;;;;;11.35;5.03;;;0.00;99.90;;;;;;5127009;28;20114;-86
2023/01/20 04:13:02;;;;;;;10.45;4.93;;;0.00;99.90;;;;;;5109586;28;20511;-86
2023/01/20 04:15:34;;;;;;;9.15;4.07;;;0.00;99.90;;;;;;5110078;28;20036;-87
2023/01/20 04:18:33;;;;;;;9.25;4.88;;;0.00;99.90;;;;;;5109429;28;20044;-87
2023/01/20 04:21:02;;;;;;;10.77;4.75;;;0.10;99.90;;;;;;5073685;28;20492;-87
2023/01/20 04:23:38;;;;;;;11.25;4.78;;;-0.10;99.90;;;;;;5113521;28;20082;-87
2023/01/20 04:26:04;;;;;;;9.52;4.72;;;-0.10;99.90;;;;;;5130283;28;20408;-87
2023/01/20 04:28:31;;;;;;;12.20;5.25;;;0.00;99.90;;;;;;5113326;28;20040;-87
2023/01/20 04:30:58;;;;;;;14.57;5.93;;;-0.10;99.90;;;;;;5096768;28;20135;-86
2023/01/20 04:33:25;;;;;;;11.13;5.53;;;-0.10;99.90;;;;;;5096857;28;20036;-87
2023/01/20 04:35:51;;;;;;;11.98;5.43;;;-0.10;99.90;;;;;;5096819;28;20125;-87
2023/01/20 04:38:18;;;;;;;11.52;5.10;;;-0.10;99.90;;;;;;5128187;28;20044;-87
2023/01/20 04:40:45;;;;;;;11.68;5.43;;;-0.10;99.90;;;;;;5129818;28;20040;-87
2023/01/20 04:43:12;;;;;;;13.30;6.43;;;-0.10;99.90;;;;;;5129705;28;20044;-88
2023/01/20 04:45:40;;;;;;;15.38;5.85;;;-0.10;99.90;;;;;;5113326;28;20492;-87
2023/01/20 04:48:07;;;;;;;13.15;6.20;;;-0.10;99.90;;;;;;5112997;28;20518;-87
2023/01/20 04:50:39;;;;;;;10.52;5.35;;;-0.10;99.90;;;;;;5096166;28;20048;-87
2023/01/20 04:53:06;;;;;;;15.43;6.70;;;-0.10;99.90;;;;;;5129311;28;20039;-87
2023/01/20 04:55:33;;;;;;;13.70;6.20;;;-0.10;99.90;;;;;;5129947;28;20446;-88
2023/01/20 04:58:00;;;;;;;14.20;6.78;;;0.40;99.90;;;;;;5096435;28;20047;-87
2023/01/20 05:00:27;;;;;;;17.48;6.97;;;-0.10;99.90;;;;;;5112161;28;20040;-87
2023/01/20 05:02:56;;;;;;;16.13;7.22;;;0.70;99.90;;;;;;5112921;28;20403;-87
2023/01/20 05:05:23;;;;;;;16.52;6.50;;;-0.20;99.90;;;;;;5129387;28;20128;-87
2023/01/20 05:07:52;;;;;;;11.68;5.85;;;-0.10;99.90;;;;;;5095977;28;20132;-86
2023/01/20 05:10:19;;;;;;;12.13;5.78;;;0.50;99.90;;;;;;5112702;28;20040;-87
2023/01/20 05:12:46;;;;;;;16.17;6.53;;;-0.10;99.90;;;;;;5096205;28;20044;-87
2023/01/20 05:15:13;;;;;;;16.02;6.22;;;-0.20;99.90;;;;;;5129132;28;20177;-87
2023/01/20 05:17:39;;;;;;;18.02;6.57;;;-0.20;99.90;;;;;;5096247;28;20382;-88
2023/01/20 05:20:07;;;;;;;16.98;7.05;;;0.30;99.90;;;;;;5129044;28;20098;-87
2023/01/20 05:22:33;;;;;;;14.07;6.15;;;-0.20;99.90;;;;;;5112910;28;20051;-87
2023/01/20 05:25:00;;;;;;;15.60;6.72;;;0.10;99.90;;;;;;5112618;28;20040;-87
2023/01/20 05:27:27;;;;;;;14.90;6.57;;;-0.20;99.90;;;;;;5112345;28;20040;-87
2023/01/20 05:29:53;;;;;;;15.73;5.90;;;-0.10;99.90;;;;;;5112322;28;20032;-87
2023/01/20 05:32:20;;;;;;;16.23;6.53;;;0.10;99.90;;;;;;5094389;28;20039;-87
2023/01/20 05:34:47;;;;;;;17.10;6.47;;;-0.20;99.90;;;;;;5112417;28;20042;-87
2023/01/20 05:37:16;;;;;;;15.07;7.13;;;-0.20;99.90;;;;;;5112039;28;20071;-87
2023/01/20 05:39:43;;;;;;;17.60;6.57;;;-0.10;99.90;;;;;;5112332;28;20039;-88
2023/01/20 05:42:09;;;;;;;13.13;5.70;;;-0.20;99.90;;;;;;5111993;28;20048;-86
2023/01/20 05:44:36;;;;;;;13.07;5.43;;;0.30;99.90;;;;;;5112236;28;20135;-87
2023/01/20 05:47:03;;;;;;;12.90;6.07;;;-0.20;99.90;;;;;;5110382;28;20131;-87
2023/01/20 05:49:30;;;;;;;12.43;5.88;;;-0.20;99.90;;;;;;5111429;28;20047;-87
2023/01/20 05:51:56;;;;;;;13.90;5.82;;;-0.20;99.90;;;;;;5128529;28;20079;-87
2023/01/20 05:54:26;;;;;;;14.27;5.78;;;0.70;99.90;;;;;;5080314;28;20068;-87
2023/01/20 05:56:52;;;;;;;12.35;5.75;;;-0.20;99.90;;;;;;5124247;28;20035;-87
2023/01/20 05:59:19;;;;;;;12.98;5.40;;;-0.10;99.90;;;;;;5125443;28;20092;-86
2023/01/20 06:01:46;;;;;;;12.63;5.53;;;0.40;99.90;;;;;;5111471;28;20044;-87
2023/01/20 06:04:13;;;;;;;15.23;5.80;;;0.60;99.90;;;;;;5127914;28;20040;-87
2023/01/20 06:06:39;;;;;;;13.95;5.80;;;-0.20;99.90;;;;;;5089434;28;20635;-87
2023/01/20 06:09:06;;;;;;;15.27;5.65;;;0.60;99.90;;;;;;5100897;28;20040;-86
2023/01/20 06:11:33;;;;;;;11.93;4.80;;;-0.20;99.90;;;;;;5109581;28;20040;-87
2023/01/20 06:13:59;;;;;;;15.32;6.72;;;-0.10;99.90;;;;;;5075233;28;20040;-87
2023/01/20 06:16:26;;;;;;;12.52;6.15;;;-0.10;99.90;;;;;;5091094;28;20040;-87
2023/01/20 06:18:53;;;;;;;14.23;5.78;;;-0.20;99.90;;;;;;5090964;28;20094;-88
2023/01/20 06:21:19;;;;;;;10.90;4.78;;;-0.10;99.90;;;;;;5102014;28;20053;-87
2023/01/20 06:23:46;;;;;;;12.20;5.47;;;0.80;99.90;;;;;;5109145;28;20412;-87
2023/01/20 06:26:13;;;;;;;15.27;6.55;;;0.70;99.90;;;;;;5107933;28;20063;-87
2023/01/20 06:28:40;;;;;;;15.73;6.75;;;-0.20;99.90;;;;;;5107284;28;20055;-87
2023/01/20 06:31:14;;;;;;;13.85;6.57;;;-0.10;99.90;;;;;;5090890;28;20040;-87
2023/01/20 06:33:42;;;;;;;16.25;6.50;;;-0.10;99.90;;;;;;5105824;28;20036;-87
2023/01/20 06:36:12;;;;;;;10.68;4.97;;;0.10;99.90;;;;;;5111220;28;20040;-87
2023/01/20 06:38:39;;;;;;;11.90;4.82;;;-0.20;99.90;;;;;;5110793;28;20040;-87
2023/01/20 06:41:09;;;;;;;10.07;5.45;;;-0.20;99.90;;;;;;5094537;28;20097;-86
2023/01/20 06:43:38;;;;;;;13.93;5.55;;;0.40;99.90;;;;;;5110395;28;20072;-88
2023/01/20 06:46:08;;;;;;;13.93;5.40;;;-0.20;99.90;;;;;;5111044;28;20071;-87
2023/01/20 06:48:35;;;;;;;13.50;5.43;;;0.00;99.90;;;;;;5110700;28;20040;-87
2023/01/20 06:51:17;;;;;;;13.27;5.65;;;-0.10;99.90;;;;;;5110636;28;20131;-87
2023/01/20 06:53:44;;;;;;;12.43;5.00;;;0.20;99.90;;;;;;5126847;28;20044;-87
2023/01/20 06:56:13;;;;;;;13.98;6.45;;;0.30;99.90;;;;;;5110798;28;20043;-87
2023/01/20 06:58:40;;;;;;;13.68;6.30;;;-0.20;99.90;;;;;;5127010;28;20217;-87
2023/01/20 07:01:17;;;;;;;13.07;5.85;;;-0.20;99.90;;;;;;5127217;28;20438;-86
2023/01/20 07:03:44;;;;;;;10.15;4.40;;;-0.10;99.90;;;;;;5110573;28;20047;-87
2023/01/20 07:06:16;;;;;;;11.50;5.20;;;-0.10;99.90;;;;;;5110283;28;20028;-88
2023/01/20 07:08:44;;;;;;;12.38;5.30;;;-0.10;99.90;;;;;;5110583;28;20119;-88
2023/01/20 07:11:11;;;;;;;12.25;5.70;;;-0.10;99.90;;;;;;5090581;28;20878;-87
2023/01/20 07:13:38;;;;;;;11.35;5.45;;;0.50;99.90;;;;;;5104775;28;20032;-87
2023/01/20 07:16:07;;;;;;;12.98;5.43;;;-0.10;99.90;;;;;;5110413;28;20115;-87
2023/01/20 07:18:34;;;;;;;13.10;5.53;;;-0.10;99.90;;;;;;5127021;28;20036;-87
2023/01/20 07:21:01;;;;;;;14.30;6.68;;;-0.10;99.90;;;;;;5111513;28;20043;-86
2023/01/20 07:23:30;;;;;;;12.98;5.57;;;0.30;99.90;;;;;;5111181;28;20491;-86
2023/01/20 07:26:03;;;;;;;14.88;5.90;;;0.50;99.90;;;;;;5093766;28;20090;-86
2023/01/20 07:28:31;;;;;;;16.02;6.40;;;0.20;99.90;;;;;;5106799;28;20066;-86
2023/01/20 07:31:04;;;;;;;9.63;3.83;;;-0.10;99.90;;;;;;5110060;28;20044;-86
2023/01/20 07:33:31;;;;;;;7.80;3.85;;;-0.10;99.90;;;;;;5126210;28;20090;-86
2023/01/20 07:35:59;;;;;;;9.07;3.67;;;-0.10;99.90;;;;;;5117476;28;20067;-86
2023/01/20 07:38:25;;;;;;;8.25;2.95;;;0.00;99.90;;;;;;5110520;28;20098;-83
2023/01/20 07:40:55;;;;;;;8.43;3.88;;;0.00;99.90;;;;;;5089570;28;20048;-86
2023/01/20 07:43:22;;;;;;;7.55;4.07;;;0.00;99.90;;;;;;5086666;28;20086;-87
2023/01/20 07:45:49;;;;;;;9.50;3.92;;;0.00;99.90;;;;;;5105646;28;20493;-87
2023/01/20 07:48:15;;;;;;;9.90;4.85;;;0.70;99.90;;;;;;5105930;28;20040;-86
2023/01/20 07:50:42;;;;;;;9.30;4.70;;;0.00;99.90;;;;;;5072579;28;20290;-87
2023/01/20 07:53:09;;;;;;;7.28;3.78;;;0.60;99.90;;;;;;5075500;28;20572;-85
2023/01/20 07:55:35;;;;;;;11.75;4.80;;;0.90;99.90;;;;;;5095575;28;20392;-86
2023/01/20 07:58:02;;;;;;;10.32;3.72;;;0.00;99.90;;;;;;5087043;28;20067;-86
2023/01/20 08:00:29;;;;;;;8.50;4.18;;;0.00;99.90;;;;;;5093534;28;20400;-84
2023/01/20 08:02:55;;;;;;;8.70;4.10;;;0.20;99.90;;;;;;5111013;28;20040;-86
2023/01/20 08:05:22;;;;;;;9.15;4.18;;;0.80;99.90;;;;;;5106100;28;20509;-86
2023/01/20 08:07:52;;;;;;;11.35;4.50;;;0.00;99.90;;;;;;5095562;28;20077;-85
2023/01/20 08:10:19;;;;;;;12.10;4.05;;;0.80;99.90;;;;;;5112595;28;20089;-85
2023/01/20 08:12:46;;;;;;;11.88;5.55;;;0.30;99.90;;;;;;5096051;28;20067;-84
2023/01/20 08:15:12;;;;;;;9.27;5.10;;;0.30;99.90;;;;;;5108371;28;20036;-86
2023/01/20 08:17:39;;;;;;;15.07;6.05;;;0.10;99.90;;;;;;5119880;28;20119;-86
2023/01/20 08:20:06;;;;;;;7.07;4.30;;;0.10;99.90;;;;;;5097667;28;20039;-86
2023/01/20 08:22:34;;;;;;;11.70;5.07;;;0.10;99.90;;;;;;5130065;28;20040;-86
2023/01/20 08:25:00;;;;;;;11.98;5.20;;;-0.10;99.90;;;;;;5096859;28;20066;-86
2023/01/20 08:27:27;;;;;;;11.73;5.88;;;0.10;99.90;;;;;;5122053;28;20036;-86
2023/01/20 08:29:54;;;;;;;16.60;6.18;;;0.20;99.90;;;;;;5113141;28;20040;-86
2023/01/20 08:32:21;;;;;;;14.32;5.45;;;0.20;99.90;;;;;;5095839;28;20032;-87
2023/01/20 08:34:47;;;;;;;10.88;4.80;;;0.60;99.90;;;;;;5103958;28;20119;-86
2023/01/20 08:37:14;;;;;;;12.73;5.70;;;0.20;99.90;;;;;;5109311;28;20032;-87
2023/01/20 08:39:41;;;;;;;14.00;4.82;;;0.20;99.90;;;;;;5096218;28;20177;-86
2023/01/20 08:42:08;;;;;;;15.77;5.60;;;0.20;99.90;;;;;;5096694;28;20040;-86
2023/01/20 08:44:34;;;;;;;15.40;6.00;;;1.20;99.90;;;;;;5096320;28;20044;-86
2023/01/20 08:47:02;;;;;;;15.65;5.65;;;1.10;99.90;;;;;;5113528;28;20408;-87
2023/01/20 08:49:29;;;;;;;12.93;5.43;;;0.30;99.90;;;;;;5096507;28;20560;-86
2023/01/20 08:51:56;;;;;;;16.30;5.85;;;0.30;99.90;;;;;;5096972;28;20128;-85
2023/01/20 08:54:22;;;;;;;17.05;5.90;;;0.50;99.90;;;;;;5106786;28;20063;-86
2023/01/20 08:56:50;;;;;;;14.40;6.50;;;0.30;99.90;;;;;;5097289;28;20032;-87
2023/01/20 08:59:19;;;;;;;14.43;5.75;;;0.30;99.90;;;;;;5109641;28;20044;-87
2023/01/20 09:01:45;;;;;;;20.98;7.13;;;1.00;99.90;;;;;;5113067;28;20047;-87
2023/01/20 09:04:12;;;;;;;15.40;6.82;;;0.40;99.90;;;;;;5114211;28;20050;-87
2023/01/20 09:06:42;;;;;;;13.57;6.68;;;0.40;99.90;;;;;;5111731;28;20131;-86
2023/01/20 09:09:10;;;;;;;16.52;6.18;;;0.50;99.90;;;;;;5129066;28;20115;-86
2023/01/20 09:11:38;;;;;;;16.50;5.45;;;0.50;99.90;;;;;;5129035;28;20105;-86
2023/01/20 09:14:05;;;;;;;16.85;6.82;;;0.50;99.90;;;;;;5131258;28;20036;-87
2023/01/20 09:16:31;;;;;;;13.85;6.20;;;1.00;99.90;;;;;;5096355;28;20094;-86
2023/01/20 09:18:58;;;;;;;13.70;6.82;;;1.00;99.90;;;;;;5104452;28;20044;-87
2023/01/20 09:21:25;;;;;;;11.98;5.57;;;0.50;99.90;;;;;;5097408;28;20044;-87
2023/01/20 09:23:51;;;;;;;16.00;5.97;;;0.50;99.90;;;;;;5113884;28;20400;-87
2023/01/20 09:26:18;;;;;;;14.60;7.05;;;0.60;99.90;;;;;;5097769;28;20043;-87
2023/01/20 09:28:47;;;;;;;13.45;6.38;;;1.10;99.90;;;;;;5113360;28;20121;-87
2023/01/20 09:31:14;;;;;;;17.73;7.57;;;1.20;99.90;;;;;;5102622;28;20068;-87
2023/01/20 09:33:42;;;;;;;13.65;6.00;;;0.60;99.90;;;;;;5092556;28;20068;-86
2023/01/20 09:36:10;;;;;;;18.88;6.88;;;0.60;99.90;;;;;;5077400;28;20045;-87
2023/01/20 09:44:22;;;;;;;14.38;7.28;;;0.70;99.90;;;;;;5109914;28;20048;-87
2023/01/20 09:47:19;;;;;;;14.35;6.20;;;0.70;99.90;;;;;;5126590;28;20041;-87
2023/01/20 09:53:07;;;;;;;17.38;6.45;;;0.70;99.90;;;;;;5137150;28;20135;-87
2023/01/20 09:55:56;;;;;;;22.88;7.82;;;0.90;99.90;;;;;;5140536;28;20073;-86
2023/01/20 09:58:26;;;;;;;18.63;6.20;;;0.80;99.90;;;;;;5092611;28;20058;-86
2023/01/20 10:01:39;;;;;;;18.08;6.45;;;0.80;99.90;;;;;;5103508;28;20048;-86
2023/01/20 10:04:29;;;;;;;18.15;6.18;;;0.80;99.90;;;;;;5098312;28;20574;-86
2023/01/20 10:07:15;;;;;;;16.50;6.75;;;0.80;99.90;;;;;;5096799;28;20056;-85
2023/01/20 10:10:01;;;;;;;19.77;7.45;;;0.80;99.90;;;;;;5128947;28;20039;-82
2023/01/20 10:12:54;;;;;;;;;;;0.90;99.90;;;;;;5108526;28;20040;-85
2023/01/20 10:15:28;;;;;;;14.95;6.50;;;0.90;99.90;;;;;;5104778;28;19968;-86
2023/01/20 10:18:04;;;;;;;20.00;6.97;;;0.90;99.90;;;;;;5119983;28;20032;-85
2023/01/20 10:20:39;;;;;;;11.30;4.82;;;0.90;99.90;;;;;;5129120;28;20051;-86
2023/01/20 10:23:24;;;;;;;18.47;6.53;;;0.90;99.90;;;;;;5127892;28;20044;-85
2023/01/20 10:26:06;;;;;;;13.05;6.03;;;1.00;99.90;;;;;;5129247;28;20055;-86
2023/01/20 10:28:39;;;;;;;17.35;6.72;;;1.00;99.90;;;;;;5146478;28;20036;-85
2023/01/20 10:31:06;;;;;;;22.25;6.47;;;1.00;99.90;;;;;;5144442;28;20050;-86
2023/01/20 10:33:39;;;;;;;14.20;5.90;;;1.00;99.90;;;;;;5112594;28;20040;-86
2023/01/20 10:36:28;;;;;;;15.90;7.10;;;1.00;99.90;;;;;;5100747;28;20040;-84
2023/01/20 10:39:03;;;;;;;13.40;5.35;;;1.00;99.90;;;;;;5091692;28;20460;-86
2023/01/20 10:41:29;;;;;;;14.40;6.18;;;1.00;99.90;;;;;;5108556;28;20044;-86
2023/01/20 10:43:58;;;;;;;11.60;5.43;;;1.00;99.90;;;;;;5091726;28;20127;-85
2023/01/20 10:47:09;;;;;;;14.07;5.88;;;1.30;99.90;;;;;;5091337;28;20047;-86
2023/01/20 10:50:06;;;;;;;15.85;6.20;;;1.00;99.90;;;;;;5108500;28;20036;-86
2023/01/20 10:52:51;;;;;;;13.45;6.80;;;0.90;99.90;;;;;;5115230;28;20044;-86
2023/01/20 10:55:37;;;;;;;21.05;7.72;;;1.00;99.90;;;;;;5103037;28;20032;-86
2023/01/20 10:58:27;;;;;;;12.25;5.18;;;1.00;99.90;;;;;;5128160;28;20039;-86
2023/01/20 11:00:56;;;;;;;11.77;5.55;;;1.00;99.90;;;;;;5111719;28;20036;-86
2023/01/20 11:03:24;;;;;;;13.38;5.65;;;1.00;99.90;;;;;;5124043;28;20036;-86
2023/01/20 11:05:51;;;;;;;15.38;5.78;;;1.00;99.90;;;;;;5093388;28;20039;-86
2023/01/20 11:08:29;;;;;;;15.43;7.05;;;1.00;99.90;;;;;;5116602;28;20480;-86
2023/01/20 11:10:59;;;;;;;13.40;6.40;;;1.10;99.90;;;;;;5110865;28;20036;-86
2023/01/20 11:13:26;;;;;;;20.08;7.63;;;1.10;99.90;;;;;;5125036;28;20111;-85
2023/01/20 11:15:58;;;;;;;10.88;6.20;;;1.10;99.90;;;;;;5090461;28;20390;-86
2023/01/20 11:18:28;;;;;;;13.07;6.13;;;1.10;99.90;;;;;;5108742;28;20047;-86
2023/01/20 11:20:59;;;;;;;15.38;6.80;;;1.10;99.90;;;;;;5108909;28;20040;-87
2023/01/20 11:23:37;;;;;;;16.70;6.30;;;1.10;99.90;;;;;;5094340;28;20044;-86
2023/01/20 11:26:30;;;;;;;14.80;6.43;;;1.10;99.90;;;;;;5121240;28;20037;-86
2023/01/20 11:29:07;;;;;;;14.88;6.13;;;1.20;99.90;;;;;;5107163;28;20378;-86
2023/01/20 11:31:38;;;;;;;14.98;6.10;;;1.20;99.90;;;;;;5111237;28;20044;-86
2023/01/20 11:34:19;;;;;;;14.32;6.47;;;1.20;99.90;;;;;;5094268;28;20097;-86
2023/01/20 11:36:47;;;;;;;12.15;4.65;;;1.20;99.90;;;;;;5111381;28;20076;-87
2023/01/20 11:39:29;;;;;;;17.42;6.20;;;1.50;99.90;;;;;;5094175;28;20130;-86
2023/01/20 11:42:26;;;;;;;12.90;6.32;;;1.20;99.90;;;;;;5093670;28;20519;-85
2023/01/20 11:44:58;;;;;;;16.40;5.65;;;1.20;99.90;;;;;;5110215;28;20052;-85
2023/01/20 11:47:32;;;;;;;12.07;4.80;;;1.20;99.90;;;;;;5110435;28;20462;-84
2023/01/20 11:50:08;;;;;;;17.63;6.00;;;1.20;99.90;;;;;;5093208;28;20614;-85
2023/01/20 11:52:37;;;;;;;14.60;5.80;;;1.30;99.90;;;;;;5118489;28;20071;-86
2023/01/20 11:55:22;;;;;;;17.95;7.22;;;1.20;99.90;;;;;;5114696;28;20040;-85
2023/01/20 11:57:57;;;;;;;15.63;5.38;;;1.40;99.90;;;;;;5136523;28;20039;-86
2023/01/20 12:00:39;;;;;;;15.90;6.43;;;1.20;99.90;;;;;;5109221;28;20085;-85
2023/01/20 12:03:09;;;;;;;15.10;6.05;;;1.20;99.90;;;;;;5130240;28;20043;-86
2023/01/20 12:06:01;;;;;;;11.70;5.43;;;1.30;99.90;;;;;;5115846;28;20118;-87
2023/01/20 12:08:30;;;;;;;14.20;6.60;;;1.30;99.90;;;;;;5097766;28;20051;-85
2023/01/20 12:11:01;;;;;;;11.52;5.45;;;1.30;99.90;;;;;;5110885;28;20037;-87
2023/01/20 12:14:42;;;;;;;11.52;5.47;;;1.30;99.90;;;;;;5102433;28;20028;-85
2023/01/20 12:16:39;;;;;;;13.43;5.20;;;1.20;99.90;;;;;;5097929;28;20497;-85
2023/01/20 12:19:14;;;;;;;11.85;5.50;;;1.20;99.90;;;;;;5110766;28;20054;-85
2023/01/20 12:21:46;;;;;;;15.90;6.45;;;1.30;99.90;;;;;;5131409;28;20047;-86
2023/01/20 12:25:06;;;;;;;18.27;5.70;;;1.20;99.90;;;;;;5131046;28;20071;-86
2023/01/20 12:27:22;;;;;;;16.45;7.13;;;1.20;99.90;;;;;;5131003;28;20210;-85
2023/01/20 12:29:52;;;;;;;18.23;6.45;;;1.40;99.90;;;;;;5114474;28;20105;-85
2023/01/20 12:32:19;;;;;;;14.20;6.50;;;1.10;99.90;;;;;;5114727;28;20036;-85
2023/01/20 12:34:46;;;;;;;16.25;5.85;;;1.20;99.90;;;;;;5097900;28;20109;-86
2023/01/20 12:37:41;;;;;;;16.05;5.70;;;1.40;99.90;;;;;;5097626;28;20069;-85
2023/01/20 12:40:34;;;;;;;16.40;6.68;;;1.20;99.90;;;;;;5105283;28;20040;-86
2023/01/20 12:43:53;;;;;;;19.90;5.90;;;1.30;99.90;;;;;;5113868;28;20127;-86
2023/01/20 12:46:24;;;;;;;12.88;6.38;;;1.20;99.90;;;;;;5089440;28;20552;-85
2023/01/20 12:49:07;;;;;;;12.13;5.07;;;1.30;99.90;;;;;;5117642;28;20611;-86
2023/01/20 12:51:52;;;;;;;14.52;6.15;;;1.30;99.90;;;;;;5092562;28;20519;-85
2023/01/20 12:55:00;;;;;;;15.60;6.40;;;1.30;99.90;;;;;;5116275;28;20234;-86
2023/01/20 12:57:42;;;;;;;18.33;6.30;;;1.30;99.90;;;;;;5110657;28;20051;-87
2023/01/20 13:00:32;;;;;;;24.17;7.07;;;1.30;99.90;;;;;;5093803;28;20040;-86
2023/01/20 13:03:35;;;;;;;13.25;6.47;;;1.30;99.90;;;;;;5111129;28;20036;-86
2023/01/20 13:06:26;;;;;;;16.83;6.57;;;1.20;99.90;;;;;;5125444;28;20040;-85
2023/01/20 13:08:59;;;;;;;13.30;6.65;;;1.50;99.90;;;;;;5128819;28;21782;-87
2023/01/20 13:11:44;;;;;;;19.13;6.80;;;1.20;99.90;;;;;;5094345;28;20123;-86
2023/01/20 13:14:21;;;;;;;14.40;6.78;;;1.30;99.90;;;;;;5110791;28;20036;-86
2023/01/20 13:16:52;;;;;;;15.70;5.57;;;1.30;99.90;;;;;;5093876;28;20047;-86
2023/01/20 13:19:28;;;;;;;16.92;7.25;;;1.20;99.90;;;;;;5094078;28;20178;-87
2023/01/20 13:22:01;;;;;;;12.82;5.93;;;1.20;99.90;;;;;;5109937;28;20051;-85